sensor_id;sensor_type;location;lat;lon;timestamp;P1;durP1;ratioP1;P2;durP2;ratioP2
75912;SDS011;64592;52.168;21.040;2023-06-10T00:04:18;15.50;;;10.20;;
75912;SDS011;64592;52.168;21.040;2023-06-10T00:09:21;11.65;;;9.00;;
75912;SDS011;64592;52.168;21.040;2023-06-10T00:14:24;13.63;;;9.48;;
75912;SDS011;64592;52.168;21.040;2023-06-10T00:19:25;11.25;;;9.70;;
75912;SDS011;64592;52.168;21.040;2023-06-10T00:24:30;11.60;;;8.90;;
75912;SDS011;64592;52.168;21.040;2023-06-10T00:29:33;11.23;;;9.23;;
75912;SDS011;64592;52.168;21.040;2023-06-10T00:34:34;9.93;;;7.53;;
75912;SDS011;64592;52.168;21.040;2023-06-10T00:39:36;13.65;;;7.82;;
75912;SDS011;64592;52.168;21.040;2023-06-10T00:44:39;9.32;;;7.35;;
75912;SDS011;64592;52.168;21.040;2023-06-10T00:49:41;13.60;;;7.30;;
75912;SDS011;64592;52.168;21.040;2023-06-10T00:54:43;10.00;;;6.90;;
75912;SDS011;64592;52.168;21.040;2023-06-10T00:59:48;9.57;;;6.88;;
75912;SDS011;64592;52.168;21.040;2023-06-10T01:04:50;10.18;;;6.32;;
75912;SDS011;64592;52.168;21.040;2023-06-10T01:09:54;9.05;;;6.60;;
75912;SDS011;64592;52.168;21.040;2023-06-10T01:15:07;8.90;;;6.43;;
75912;SDS011;64592;52.168;21.040;2023-06-10T01:20:10;6.93;;;5.75;;
75912;SDS011;64592;52.168;21.040;2023-06-10T01:25:13;7.80;;;5.57;;
75912;SDS011;64592;52.168;21.040;2023-06-10T01:30:15;7.85;;;5.30;;
75912;SDS011;64592;52.168;21.040;2023-06-10T01:35:22;7.35;;;5.28;;
75912;SDS011;64592;52.168;21.040;2023-06-10T01:40:27;7.38;;;5.15;;
75912;SDS011;64592;52.168;21.040;2023-06-10T01:45:30;9.68;;;5.30;;
75912;SDS011;64592;52.168;21.040;2023-06-10T01:50:32;6.97;;;4.78;;
75912;SDS011;64592;52.168;21.040;2023-06-10T01:55:35;8.43;;;4.80;;
75912;SDS011;64592;52.168;21.040;2023-06-10T02:00:37;9.80;;;4.88;;
75912;SDS011;64592;52.168;21.040;2023-06-10T02:05:38;8.32;;;4.60;;
75912;SDS011;64592;52.168;21.040;2023-06-10T02:10:41;6.68;;;4.55;;
75912;SDS011;64592;52.168;21.040;2023-06-10T02:15:43;10.10;;;4.68;;
75912;SDS011;64592;52.168;21.040;2023-06-10T02:20:45;9.52;;;5.20;;
75912;SDS011;64592;52.168;21.040;2023-06-10T02:25:48;7.55;;;4.88;;
75912;SDS011;64592;52.168;21.040;2023-06-10T02:30:50;7.65;;;4.45;;
75912;SDS011;64592;52.168;21.040;2023-06-10T02:35:53;8.52;;;4.00;;
75912;SDS011;64592;52.168;21.040;2023-06-10T02:40:56;8.35;;;4.47;;
75912;SDS011;64592;52.168;21.040;2023-06-10T02:45:58;7.10;;;4.68;;
75912;SDS011;64592;52.168;21.040;2023-06-10T02:50:59;7.70;;;4.40;;
75912;SDS011;64592;52.168;21.040;2023-06-10T02:56:02;9.90;;;4.63;;
75912;SDS011;64592;52.168;21.040;2023-06-10T03:01:04;13.40;;;4.50;;
75912;SDS011;64592;52.168;21.040;2023-06-10T03:06:06;7.50;;;4.45;;
75912;SDS011;64592;52.168;21.040;2023-06-10T03:11:10;7.97;;;4.40;;
75912;SDS011;64592;52.168;21.040;2023-06-10T03:16:11;8.32;;;4.70;;
75912;SDS011;64592;52.168;21.040;2023-06-10T03:21:13;8.63;;;4.40;;
75912;SDS011;64592;52.168;21.040;2023-06-10T03:26:16;9.02;;;4.45;;
75912;SDS011;64592;52.168;21.040;2023-06-10T03:31:21;9.45;;;4.40;;
75912;SDS011;64592;52.168;21.040;2023-06-10T03:36:24;13.10;;;4.20;;
75912;SDS011;64592;52.168;21.040;2023-06-10T03:41:30;7.50;;;4.63;;
75912;SDS011;64592;52.168;21.040;2023-06-10T03:46:32;9.20;;;5.18;;
75912;SDS011;64592;52.168;21.040;2023-06-10T03:51:33;8.35;;;4.30;;
75912;SDS011;64592;52.168;21.040;2023-06-10T03:56:37;11.25;;;4.65;;
75912;SDS011;64592;52.168;21.040;2023-06-10T04:01:39;7.07;;;4.30;;
75912;SDS011;64592;52.168;21.040;2023-06-10T04:06:41;6.63;;;4.20;;
75912;SDS011;64592;52.168;21.040;2023-06-10T04:11:45;8.45;;;4.32;;
75912;SDS011;64592;52.168;21.040;2023-06-10T04:16:46;7.82;;;4.10;;
75912;SDS011;64592;52.168;21.040;2023-06-10T04:21:48;8.63;;;4.38;;
75912;SDS011;64592;52.168;21.040;2023-06-10T04:26:51;8.18;;;4.63;;
75912;SDS011;64592;52.168;21.040;2023-06-10T04:31:53;7.03;;;4.03;;
75912;SDS011;64592;52.168;21.040;2023-06-10T04:36:54;6.32;;;3.80;;
75912;SDS011;64592;52.168;21.040;2023-06-10T04:41:57;10.20;;;4.88;;
75912;SDS011;64592;52.168;21.040;2023-06-10T04:46:59;9.93;;;4.03;;
75912;SDS011;64592;52.168;21.040;2023-06-10T04:52:01;4.97;;;3.92;;
75912;SDS011;64592;52.168;21.040;2023-06-10T04:57:06;7.28;;;4.03;;
75912;SDS011;64592;52.168;21.040;2023-06-10T05:02:10;11.05;;;4.93;;
75912;SDS011;64592;52.168;21.040;2023-06-10T05:07:11;10.25;;;4.80;;
75912;SDS011;64592;52.168;21.040;2023-06-10T05:12:14;10.43;;;4.25;;
75912;SDS011;64592;52.168;21.040;2023-06-10T05:17:16;8.50;;;4.57;;
75912;SDS011;64592;52.168;21.040;2023-06-10T05:22:18;9.15;;;4.68;;
75912;SDS011;64592;52.168;21.040;2023-06-10T05:27:21;7.93;;;4.90;;
75912;SDS011;64592;52.168;21.040;2023-06-10T05:32:22;6.10;;;4.05;;
75912;SDS011;64592;52.168;21.040;2023-06-10T05:37:24;8.05;;;4.05;;
75912;SDS011;64592;52.168;21.040;2023-06-10T05:42:27;13.23;;;4.78;;
75912;SDS011;64592;52.168;21.040;2023-06-10T05:47:29;7.55;;;4.55;;
75912;SDS011;64592;52.168;21.040;2023-06-10T05:52:31;7.60;;;4.38;;
75912;SDS011;64592;52.168;21.040;2023-06-10T05:57:34;7.85;;;5.05;;
75912;SDS011;64592;52.168;21.040;2023-06-10T06:02:36;11.32;;;4.45;;
75912;SDS011;64592;52.168;21.040;2023-06-10T06:07:37;8.75;;;4.35;;
75912;SDS011;64592;52.168;21.040;2023-06-10T06:12:40;9.63;;;4.38;;
75912;SDS011;64592;52.168;21.040;2023-06-10T06:17:42;9.30;;;4.88;;
75912;SDS011;64592;52.168;21.040;2023-06-10T06:22:43;7.43;;;5.28;;
75912;SDS011;64592;52.168;21.040;2023-06-10T06:27:47;14.25;;;5.50;;
75912;SDS011;64592;52.168;21.040;2023-06-10T06:32:48;7.53;;;4.70;;
75912;SDS011;64592;52.168;21.040;2023-06-10T06:37:51;7.55;;;4.15;;
75912;SDS011;64592;52.168;21.040;2023-06-10T06:42:54;9.60;;;5.00;;
75912;SDS011;64592;52.168;21.040;2023-06-10T06:47:56;9.32;;;5.05;;
75912;SDS011;64592;52.168;21.040;2023-06-10T06:52:58;10.32;;;5.32;;
75912;SDS011;64592;52.168;21.040;2023-06-10T06:58:01;8.55;;;5.13;;
75912;SDS011;64592;52.168;21.040;2023-06-10T07:03:04;8.10;;;4.97;;
75912;SDS011;64592;52.168;21.040;2023-06-10T07:08:05;8.20;;;4.65;;
75912;SDS011;64592;52.168;21.040;2023-06-10T07:13:08;9.73;;;5.68;;
75912;SDS011;64592;52.168;21.040;2023-06-10T07:18:10;7.10;;;4.93;;
75912;SDS011;64592;52.168;21.040;2023-06-10T07:23:12;7.65;;;4.63;;
75912;SDS011;64592;52.168;21.040;2023-06-10T07:28:15;6.97;;;4.68;;
75912;SDS011;64592;52.168;21.040;2023-06-10T07:33:16;9.75;;;4.72;;
75912;SDS011;64592;52.168;21.040;2023-06-10T07:38:18;10.35;;;4.95;;
75912;SDS011;64592;52.168;21.040;2023-06-10T07:43:21;11.60;;;4.97;;
75912;SDS011;64592;52.168;21.040;2023-06-10T07:48:23;6.40;;;5.15;;
75912;SDS011;64592;52.168;21.040;2023-06-10T07:53:25;6.45;;;4.78;;
75912;SDS011;64592;52.168;21.040;2023-06-10T07:58:28;11.35;;;5.13;;
75912;SDS011;64592;52.168;21.040;2023-06-10T08:03:29;9.45;;;5.15;;
75912;SDS011;64592;52.168;21.040;2023-06-10T08:08:31;8.68;;;4.88;;
75912;SDS011;64592;52.168;21.040;2023-06-10T08:13:36;6.70;;;4.30;;
75912;SDS011;64592;52.168;21.040;2023-06-10T08:18:37;8.80;;;4.43;;
75912;SDS011;64592;52.168;21.040;2023-06-10T08:23:39;11.52;;;5.20;;
75912;SDS011;64592;52.168;21.040;2023-06-10T08:28:42;8.85;;;5.10;;
75912;SDS011;64592;52.168;21.040;2023-06-10T08:33:44;7.80;;;4.80;;
75912;SDS011;64592;52.168;21.040;2023-06-10T08:38:45;6.70;;;4.20;;
75912;SDS011;64592;52.168;21.040;2023-06-10T08:43:51;6.57;;;4.55;;
75912;SDS011;64592;52.168;21.040;2023-06-10T08:49:01;6.57;;;4.15;;
75912;SDS011;64592;52.168;21.040;2023-06-10T08:54:09;7.85;;;4.30;;
75912;SDS011;64592;52.168;21.040;2023-06-10T08:59:18;7.57;;;4.30;;
75912;SDS011;64592;52.168;21.040;2023-06-10T09:04:21;10.20;;;5.15;;
75912;SDS011;64592;52.168;21.040;2023-06-10T09:09:25;5.18;;;3.80;;
75912;SDS011;64592;52.168;21.040;2023-06-10T09:14:31;6.60;;;4.30;;
75912;SDS011;64592;52.168;21.040;2023-06-10T09:19:33;6.82;;;4.13;;
75912;SDS011;64592;52.168;21.040;2023-06-10T09:24:36;7.25;;;4.38;;
75912;SDS011;64592;52.168;21.040;2023-06-10T09:29:50;8.48;;;3.80;;
75912;SDS011;64592;52.168;21.040;2023-06-10T09:34:53;5.65;;;3.90;;
75912;SDS011;64592;52.168;21.040;2023-06-10T09:40:02;6.82;;;5.25;;
75912;SDS011;64592;52.168;21.040;2023-06-10T09:45:07;6.00;;;4.00;;
75912;SDS011;64592;52.168;21.040;2023-06-10T09:50:09;8.75;;;4.18;;
75912;SDS011;64592;52.168;21.040;2023-06-10T09:55:11;5.63;;;4.25;;
75912;SDS011;64592;52.168;21.040;2023-06-10T10:00:15;6.72;;;4.45;;
75912;SDS011;64592;52.168;21.040;2023-06-10T10:05:17;7.93;;;3.85;;
75912;SDS011;64592;52.168;21.040;2023-06-10T10:10:20;7.00;;;3.88;;
75912;SDS011;64592;52.168;21.040;2023-06-10T10:15:24;8.10;;;4.03;;
75912;SDS011;64592;52.168;21.040;2023-06-10T10:20:33;7.28;;;3.80;;
75912;SDS011;64592;52.168;21.040;2023-06-10T10:25:37;6.47;;;3.90;;
75912;SDS011;64592;52.168;21.040;2023-06-10T10:30:42;6.35;;;4.43;;
75912;SDS011;64592;52.168;21.040;2023-06-10T10:35:46;6.72;;;4.05;;
75912;SDS011;64592;52.168;21.040;2023-06-10T10:40:48;4.97;;;3.42;;
75912;SDS011;64592;52.168;21.040;2023-06-10T10:45:58;12.95;;;4.10;;
75912;SDS011;64592;52.168;21.040;2023-06-10T10:51:00;6.63;;;3.75;;
75912;SDS011;64592;52.168;21.040;2023-06-10T10:56:04;8.32;;;4.38;;
75912;SDS011;64592;52.168;21.040;2023-06-10T11:01:11;9.82;;;3.97;;
75912;SDS011;64592;52.168;21.040;2023-06-10T11:06:15;8.27;;;4.25;;
75912;SDS011;64592;52.168;21.040;2023-06-10T11:11:18;6.53;;;3.90;;
75912;SDS011;64592;52.168;21.040;2023-06-10T11:16:22;5.28;;;3.40;;
75912;SDS011;64592;52.168;21.040;2023-06-10T11:21:29;5.35;;;3.30;;
75912;SDS011;64592;52.168;21.040;2023-06-10T11:26:31;6.13;;;4.18;;
75912;SDS011;64592;52.168;21.040;2023-06-10T11:31:40;9.48;;;3.80;;
75912;SDS011;64592;52.168;21.040;2023-06-10T11:36:43;5.28;;;3.70;;
75912;SDS011;64592;52.168;21.040;2023-06-10T11:41:46;7.38;;;3.95;;
75912;SDS011;64592;52.168;21.040;2023-06-10T11:46:49;5.88;;;4.13;;
75912;SDS011;64592;52.168;21.040;2023-06-10T11:51:51;7.63;;;4.75;;
75912;SDS011;64592;52.168;21.040;2023-06-10T11:56:57;7.60;;;5.25;;
75912;SDS011;64592;52.168;21.040;2023-06-10T12:02:00;6.75;;;4.50;;
75912;SDS011;64592;52.168;21.040;2023-06-10T12:07:03;5.57;;;3.83;;
75912;SDS011;64592;52.168;21.040;2023-06-10T12:12:05;9.75;;;4.70;;
75912;SDS011;64592;52.168;21.040;2023-06-10T12:17:09;10.27;;;5.40;;
75912;SDS011;64592;52.168;21.040;2023-06-10T12:22:10;8.95;;;5.53;;
75912;SDS011;64592;52.168;21.040;2023-06-10T12:27:12;7.32;;;5.22;;
75912;SDS011;64592;52.168;21.040;2023-06-10T12:32:15;6.68;;;4.90;;
75912;SDS011;64592;52.168;21.040;2023-06-10T12:37:17;9.43;;;5.18;;
75912;SDS011;64592;52.168;21.040;2023-06-10T12:42:21;8.27;;;5.10;;
75912;SDS011;64592;52.168;21.040;2023-06-10T12:47:30;9.50;;;5.43;;
75912;SDS011;64592;52.168;21.040;2023-06-10T12:52:36;9.80;;;5.35;;
75912;SDS011;64592;52.168;21.040;2023-06-10T12:57:47;7.03;;;5.00;;
75912;SDS011;64592;52.168;21.040;2023-06-10T13:02:51;5.90;;;4.88;;
75912;SDS011;64592;52.168;21.040;2023-06-10T13:07:54;7.05;;;5.15;;
75912;SDS011;64592;52.168;21.040;2023-06-10T13:12:56;8.38;;;5.50;;
75912;SDS011;64592;52.168;21.040;2023-06-10T13:18:01;6.05;;;5.10;;
75912;SDS011;64592;52.168;21.040;2023-06-10T13:23:03;9.98;;;6.10;;
75912;SDS011;64592;52.168;21.040;2023-06-10T13:28:05;8.13;;;5.20;;
75912;SDS011;64592;52.168;21.040;2023-06-10T13:33:08;7.53;;;5.93;;
75912;SDS011;64592;52.168;21.040;2023-06-10T13:38:10;8.98;;;6.30;;
75912;SDS011;64592;52.168;21.040;2023-06-10T13:43:12;8.75;;;5.90;;
75912;SDS011;64592;52.168;21.040;2023-06-10T13:48:16;12.45;;;5.75;;
75912;SDS011;64592;52.168;21.040;2023-06-10T13:53:18;8.15;;;5.78;;
75912;SDS011;64592;52.168;21.040;2023-06-10T13:58:19;10.38;;;5.85;;
75912;SDS011;64592;52.168;21.040;2023-06-10T14:03:22;7.82;;;5.60;;
75912;SDS011;64592;52.168;21.040;2023-06-10T14:08:24;6.45;;;5.55;;
75912;SDS011;64592;52.168;21.040;2023-06-10T14:13:26;7.93;;;5.38;;
75912;SDS011;64592;52.168;21.040;2023-06-10T14:18:29;9.23;;;5.55;;
75912;SDS011;64592;52.168;21.040;2023-06-10T14:23:31;6.97;;;5.80;;
75912;SDS011;64592;52.168;21.040;2023-06-10T14:28:33;8.50;;;5.70;;
75912;SDS011;64592;52.168;21.040;2023-06-10T14:33:36;7.10;;;5.30;;
75912;SDS011;64592;52.168;21.040;2023-06-10T14:38:37;8.80;;;5.65;;
75912;SDS011;64592;52.168;21.040;2023-06-10T14:43:39;8.45;;;5.35;;
75912;SDS011;64592;52.168;21.040;2023-06-10T14:48:42;15.38;;;5.55;;
75912;SDS011;64592;52.168;21.040;2023-06-10T14:53:44;7.93;;;5.15;;
75912;SDS011;64592;52.168;21.040;2023-06-10T14:58:46;6.75;;;5.13;;
75912;SDS011;64592;52.168;21.040;2023-06-10T15:03:49;7.93;;;4.63;;
75912;SDS011;64592;52.168;21.040;2023-06-10T15:08:51;8.57;;;5.10;;
75912;SDS011;64592;52.168;21.040;2023-06-10T15:13:53;8.80;;;4.95;;
75912;SDS011;64592;52.168;21.040;2023-06-10T15:18:56;5.70;;;5.10;;
75912;SDS011;64592;52.168;21.040;2023-06-10T15:23:57;5.68;;;4.78;;
75912;SDS011;64592;52.168;21.040;2023-06-10T15:28:59;8.45;;;5.07;;
75912;SDS011;64592;52.168;21.040;2023-06-10T15:39:08;7.15;;;5.35;;
75912;SDS011;64592;52.168;21.040;2023-06-10T15:44:10;8.18;;;5.07;;
75912;SDS011;64592;52.168;21.040;2023-06-10T15:49:13;6.75;;;5.00;;
75912;SDS011;64592;52.168;21.040;2023-06-10T15:54:15;9.15;;;5.85;;
75912;SDS011;64592;52.168;21.040;2023-06-10T15:59:16;7.10;;;5.32;;
75912;SDS011;64592;52.168;21.040;2023-06-10T16:04:19;8.52;;;4.85;;
75912;SDS011;64592;52.168;21.040;2023-06-10T16:09:21;8.48;;;5.30;;
75912;SDS011;64592;52.168;21.040;2023-06-10T16:14:23;9.50;;;4.97;;
75912;SDS011;64592;52.168;21.040;2023-06-10T16:19:26;8.10;;;5.53;;
75912;SDS011;64592;52.168;21.040;2023-06-10T16:24:27;9.35;;;5.05;;
75912;SDS011;64592;52.168;21.040;2023-06-10T16:29:29;7.00;;;4.57;;
75912;SDS011;64592;52.168;21.040;2023-06-10T16:34:32;6.93;;;4.43;;
75912;SDS011;64592;52.168;21.040;2023-06-10T16:39:34;6.30;;;4.93;;
75912;SDS011;64592;52.168;21.040;2023-06-10T16:44:35;5.95;;;4.80;;
75912;SDS011;64592;52.168;21.040;2023-06-10T16:49:38;9.18;;;5.55;;
75912;SDS011;64592;52.168;21.040;2023-06-10T16:54:40;9.18;;;5.13;;
75912;SDS011;64592;52.168;21.040;2023-06-10T16:59:42;7.45;;;4.75;;
75912;SDS011;64592;52.168;21.040;2023-06-10T17:04:45;9.52;;;4.43;;
75912;SDS011;64592;52.168;21.040;2023-06-10T17:09:46;8.48;;;4.70;;
75912;SDS011;64592;52.168;21.040;2023-06-10T17:14:48;5.68;;;4.35;;
75912;SDS011;64592;52.168;21.040;2023-06-10T17:19:51;7.70;;;4.63;;
75912;SDS011;64592;52.168;21.040;2023-06-10T17:24:53;8.48;;;5.05;;
75912;SDS011;64592;52.168;21.040;2023-06-10T17:29:54;6.53;;;4.47;;
75912;SDS011;64592;52.168;21.040;2023-06-10T17:34:57;6.78;;;4.57;;
75912;SDS011;64592;52.168;21.040;2023-06-10T17:39:59;9.82;;;5.10;;
75912;SDS011;64592;52.168;21.040;2023-06-10T17:45:01;7.30;;;4.40;;
75912;SDS011;64592;52.168;21.040;2023-06-10T17:50:04;7.97;;;4.32;;
75912;SDS011;64592;52.168;21.040;2023-06-10T17:55:06;5.88;;;5.13;;
75912;SDS011;64592;52.168;21.040;2023-06-10T18:00:08;7.30;;;5.25;;
75912;SDS011;64592;52.168;21.040;2023-06-10T18:05:12;6.60;;;4.88;;
75912;SDS011;64592;52.168;21.040;2023-06-10T18:10:13;6.68;;;5.38;;
75912;SDS011;64592;52.168;21.040;2023-06-10T18:15:15;8.40;;;5.10;;
75912;SDS011;64592;52.168;21.040;2023-06-10T18:20:18;7.10;;;5.38;;
75912;SDS011;64592;52.168;21.040;2023-06-10T18:25:20;7.85;;;5.15;;
75912;SDS011;64592;52.168;21.040;2023-06-10T18:30:21;9.15;;;5.85;;
75912;SDS011;64592;52.168;21.040;2023-06-10T18:35:24;9.88;;;5.32;;
75912;SDS011;64592;52.168;21.040;2023-06-10T18:40:26;8.70;;;5.97;;
75912;SDS011;64592;52.168;21.040;2023-06-10T18:45:28;8.30;;;5.20;;
75912;SDS011;64592;52.168;21.040;2023-06-10T18:50:31;6.82;;;5.22;;
75912;SDS011;64592;52.168;21.040;2023-06-10T18:55:32;9.10;;;5.85;;
75912;SDS011;64592;52.168;21.040;2023-06-10T19:00:35;6.68;;;5.32;;
75912;SDS011;64592;52.168;21.040;2023-06-10T19:05:38;8.70;;;5.80;;
75912;SDS011;64592;52.168;21.040;2023-06-10T19:10:40;8.05;;;6.22;;
75912;SDS011;64592;52.168;21.040;2023-06-10T19:15:42;7.75;;;5.78;;
75912;SDS011;64592;52.168;21.040;2023-06-10T19:20:45;7.00;;;5.80;;
75912;SDS011;64592;52.168;21.040;2023-06-10T19:25:47;8.55;;;5.82;;
75912;SDS011;64592;52.168;21.040;2023-06-10T19:30:48;8.18;;;6.05;;
75912;SDS011;64592;52.168;21.040;2023-06-10T19:35:51;9.40;;;6.85;;
75912;SDS011;64592;52.168;21.040;2023-06-10T19:45:56;9.68;;;6.32;;
75912;SDS011;64592;52.168;21.040;2023-06-10T19:50:59;7.25;;;6.40;;
75912;SDS011;64592;52.168;21.040;2023-06-10T19:56:01;7.80;;;6.40;;
75912;SDS011;64592;52.168;21.040;2023-06-10T20:01:03;6.78;;;6.07;;
75912;SDS011;64592;52.168;21.040;2023-06-10T20:06:06;9.25;;;6.45;;
75912;SDS011;64592;52.168;21.040;2023-06-10T20:11:08;8.32;;;6.68;;
75912;SDS011;64592;52.168;21.040;2023-06-10T20:16:10;7.30;;;6.55;;
75912;SDS011;64592;52.168;21.040;2023-06-10T20:21:14;10.38;;;6.45;;
75912;SDS011;64592;52.168;21.040;2023-06-10T20:26:15;8.38;;;6.95;;
75912;SDS011;64592;52.168;21.040;2023-06-10T20:31:19;7.70;;;6.90;;
75912;SDS011;64592;52.168;21.040;2023-06-10T20:36:22;9.80;;;7.03;;
75912;SDS011;64592;52.168;21.040;2023-06-10T20:41:24;8.75;;;7.22;;
75912;SDS011;64592;52.168;21.040;2023-06-10T20:46:26;9.40;;;7.40;;
75912;SDS011;64592;52.168;21.040;2023-06-10T20:51:29;8.65;;;7.20;;
75912;SDS011;64592;52.168;21.040;2023-06-10T20:56:32;10.40;;;7.25;;
75912;SDS011;64592;52.168;21.040;2023-06-10T21:01:34;9.77;;;7.68;;
75912;SDS011;64592;52.168;21.040;2023-06-10T21:06:37;11.23;;;8.05;;
75912;SDS011;64592;52.168;21.040;2023-06-10T21:11:39;9.18;;;7.65;;
75912;SDS011;64592;52.168;21.040;2023-06-10T21:16:41;8.05;;;7.03;;
75912;SDS011;64592;52.168;21.040;2023-06-10T21:21:44;9.77;;;7.57;;
75912;SDS011;64592;52.168;21.040;2023-06-10T21:26:45;12.02;;;8.35;;
75912;SDS011;64592;52.168;21.040;2023-06-10T21:31:47;13.35;;;8.32;;
75912;SDS011;64592;52.168;21.040;2023-06-10T21:36:50;12.10;;;8.85;;
75912;SDS011;64592;52.168;21.040;2023-06-10T21:41:52;9.90;;;8.10;;
75912;SDS011;64592;52.168;21.040;2023-06-10T21:46:53;11.95;;;8.75;;
75912;SDS011;64592;52.168;21.040;2023-06-10T21:51:56;10.68;;;8.60;;
75912;SDS011;64592;52.168;21.040;2023-06-10T21:56:58;12.93;;;9.70;;
75912;SDS011;64592;52.168;21.040;2023-06-10T22:02:00;12.27;;;10.00;;
75912;SDS011;64592;52.168;21.040;2023-06-10T22:07:03;12.70;;;9.05;;
75912;SDS011;64592;52.168;21.040;2023-06-10T22:12:05;13.40;;;9.30;;
75912;SDS011;64592;52.168;21.040;2023-06-10T22:17:08;11.10;;;8.85;;
75912;SDS011;64592;52.168;21.040;2023-06-10T22:22:11;12.35;;;8.88;;
75912;SDS011;64592;52.168;21.040;2023-06-10T22:27:13;15.25;;;9.00;;
75912;SDS011;64592;52.168;21.040;2023-06-10T22:32:15;11.52;;;8.88;;
75912;SDS011;64592;52.168;21.040;2023-06-10T22:37:18;11.63;;;8.15;;
75912;SDS011;64592;52.168;21.040;2023-06-10T22:42:20;11.63;;;8.15;;
75912;SDS011;64592;52.168;21.040;2023-06-10T22:47:22;12.57;;;7.78;;
75912;SDS011;64592;52.168;21.040;2023-06-10T22:52:25;11.63;;;7.72;;
75912;SDS011;64592;52.168;21.040;2023-06-10T22:57:27;12.43;;;7.80;;
75912;SDS011;64592;52.168;21.040;2023-06-10T23:02:28;10.38;;;7.43;;
75912;SDS011;64592;52.168;21.040;2023-06-10T23:07:31;11.27;;;8.18;;
75912;SDS011;64592;52.168;21.040;2023-06-10T23:12:33;10.45;;;7.45;;
75912;SDS011;64592;52.168;21.040;2023-06-10T23:17:35;8.35;;;6.55;;
75912;SDS011;64592;52.168;21.040;2023-06-10T23:22:38;10.75;;;7.28;;
75912;SDS011;64592;52.168;21.040;2023-06-10T23:27:40;11.00;;;7.10;;
75912;SDS011;64592;52.168;21.040;2023-06-10T23:32:42;8.57;;;6.55;;
75912;SDS011;64592;52.168;21.040;2023-06-10T23:37:45;11.18;;;6.88;;
75912;SDS011;64592;52.168;21.040;2023-06-10T23:42:47;8.02;;;5.70;;
75912;SDS011;64592;52.168;21.040;2023-06-10T23:47:49;10.32;;;6.10;;
75912;SDS011;64592;52.168;21.040;2023-06-10T23:52:53;6.95;;;5.72;;
75912;SDS011;64592;52.168;21.040;2023-06-10T23:57:55;10.43;;;6.00;;
